Time;durP1;ratioP1;P1;durP2;ratioP2;P2;SDS_P1;SDS_P2;PMS_P1;PMS_P2;Temp;Humidity;BMP_temperature;BMP_pressure;BME280_temperature;BME280_humidity;BME280_pressure;Samples;Min_cycle;Max_cycle;Signal;HPM_P1;HPM_P2
2023/05/20 00:01:43;;;;;;;7.55;3.78;;;11.90;99.90;;;;;;4960060;28;20039;-82
2023/05/20 00:04:09;;;;;;;10.27;4.22;;;10.00;99.90;;;;;;4923035;28;20539;-80
2023/05/20 00:06:35;;;;;;;12.13;3.75;;;11.80;99.90;;;;;;4926105;29;20047;-88
2023/05/20 00:09:02;;;;;;;8.95;4.13;;;13.40;99.90;;;;;;4957628;28;20090;-81
2023/05/20 00:11:28;;;;;;;10.90;4.00;;;11.80;99.90;;;;;;4939871;28;20094;-86
2023/05/20 00:13:53;;;;;;;12.43;4.38;;;13.60;99.90;;;;;;4960116;28;20623;-85
2023/05/20 00:16:22;;;;;;;10.07;4.07;;;13.00;99.90;;;;;;4957828;28;20055;-84
2023/05/20 00:18:47;;;;;;;8.50;3.65;;;11.80;99.90;;;;;;4959254;28;20172;-84
2023/05/20 00:21:13;;;;;;;9.98;4.20;;;13.20;99.90;;;;;;4958457;28;20048;-79
2023/05/20 00:23:39;;;;;;;12.52;3.67;;;11.70;99.90;;;;;;4955573;28;20046;-87
2023/05/20 00:26:05;;;;;;;13.43;3.72;;;11.70;99.90;;;;;;4954879;28;20062;-85
2023/05/20 00:28:30;;;;;;;9.98;3.25;;;11.70;99.90;;;;;;4956714;28;20035;-87
2023/05/20 00:30:57;;;;;;;10.88;3.97;;;11.70;99.90;;;;;;4957219;28;20039;-85
2023/05/20 00:33:23;;;;;;;13.98;3.70;;;12.10;99.90;;;;;;4943813;28;20047;-87
2023/05/20 00:35:50;;;;;;;12.18;3.75;;;13.50;99.90;;;;;;4960548;28;20042;-80
2023/05/20 00:38:18;;;;;;;10.85;4.53;;;11.60;99.90;;;;;;4943000;28;20043;-88
2023/05/20 00:40:44;;;;;;;13.70;4.18;;;11.60;99.90;;;;;;4949004;28;20046;-85
2023/05/20 00:43:10;;;;;;;7.93;3.33;;;13.50;99.90;;;;;;4965050;28;20039;-88
2023/05/20 00:45:38;;;;;;;8.95;3.78;;;12.70;99.90;;;;;;4968785;28;20074;-85
2023/05/20 00:48:04;;;;;;;16.40;3.80;;;11.60;99.90;;;;;;4948021;28;20043;-83
2023/05/20 00:50:32;;;;;;;10.82;4.13;;;11.60;99.90;;;;;;4944802;28;20086;-87
2023/05/20 00:52:58;;;;;;;9.05;3.47;;;11.50;99.90;;;;;;4955208;28;20396;-89
2023/05/20 00:55:24;;;;;;;8.35;3.50;;;11.50;99.90;;;;;;4942494;28;20046;-84
2023/05/20 00:57:51;;;;;;;10.63;3.60;;;11.50;99.90;;;;;;4960918;28;20039;-86
2023/05/20 01:00:17;;;;;;;10.77;3.97;;;11.50;99.90;;;;;;4936584;28;20043;-89
2023/05/20 01:02:43;;;;;;;8.93;3.58;;;11.70;99.90;;;;;;4959149;28;20602;-89
2023/05/20 01:05:09;;;;;;;14.68;4.90;;;11.60;99.90;;;;;;4957575;28;20031;-86
2023/05/20 01:07:35;;;;;;;7.75;3.55;;;12.20;99.90;;;;;;4955639;28;20054;-87
2023/05/20 01:10:01;;;;;;;7.88;3.50;;;12.40;99.90;;;;;;4957375;28;20118;-83
2023/05/20 01:12:33;;;;;;;9.32;3.45;;;11.70;99.90;;;;;;4963072;28;20545;-87
2023/05/20 01:15:11;;;;;;;9.10;3.58;;;12.70;99.90;;;;;;4963775;28;20456;-85
2023/05/20 01:17:46;;;;;;;7.68;3.80;;;11.40;99.90;;;;;;4948668;28;20111;-84
2023/05/20 01:20:17;;;;;;;12.40;3.83;;;11.40;99.90;;;;;;4960837;28;20066;-84
2023/05/20 01:22:55;;;;;;;9.40;3.17;;;11.30;99.90;;;;;;4964173;28;20038;-87
2023/05/20 01:25:21;;;;;;;10.45;3.45;;;11.30;99.90;;;;;;4945304;28;20042;-86
2023/05/20 01:27:47;;;;;;;9.75;3.90;;;11.30;99.90;;;;;;4960552;28;20135;-88
2023/05/20 01:30:15;;;;;;;9.05;4.10;;;13.50;99.90;;;;;;4942333;28;20046;-89
2023/05/20 01:33:05;;;;;;;10.85;3.50;;;12.50;99.90;;;;;;4946891;28;20073;-88
2023/05/20 01:35:38;;;;;;;8.63;3.65;;;11.30;99.90;;;;;;4953008;28;20071;-85
2023/05/20 01:38:05;;;;;;;10.02;3.85;;;11.30;99.90;;;;;;4943680;29;20049;-88
2023/05/20 01:40:33;;;;;;;12.68;4.13;;;13.20;99.90;;;;;;4958873;28;20047;-88
2023/05/20 01:43:00;;;;;;;8.65;3.55;;;10.30;99.90;;;;;;4944089;29;20043;-85
2023/05/20 01:45:26;;;;;;;7.13;3.33;;;11.10;99.90;;;;;;4945712;28;20051;-86
2023/05/20 01:47:51;;;;;;;6.65;3.15;;;12.50;99.90;;;;;;4941400;28;20047;-88
2023/05/20 01:50:17;;;;;;;6.07;3.67;;;11.20;99.90;;;;;;4954207;28;20051;-84
2023/05/20 01:52:43;;;;;;;12.50;3.85;;;11.10;99.90;;;;;;4940499;28;20038;-87
2023/05/20 01:55:09;;;;;;;8.30;3.40;;;12.00;99.90;;;;;;4952588;28;20086;-87
2023/05/20 01:57:34;;;;;;;7.22;3.40;;;11.00;99.90;;;;;;4959750;28;20047;-88
2023/05/20 02:00:01;;;;;;;10.93;3.10;;;11.40;99.90;;;;;;4958774;28;20122;-88
2023/05/20 02:02:26;;;;;;;11.07;4.70;;;13.20;99.90;;;;;;4961919;28;20044;-87
2023/05/20 02:04:53;;;;;;;6.93;3.50;;;11.90;99.90;;;;;;4938786;29;20043;-86
2023/05/20 02:07:18;;;;;;;7.65;3.30;;;11.10;99.90;;;;;;4960289;28;20049;-88
2023/05/20 02:09:44;;;;;;;6.15;3.35;;;10.90;99.90;;;;;;4964438;28;20043;-86
2023/05/20 02:12:16;;;;;;;10.07;3.65;;;11.20;99.90;;;;;;4946592;28;20470;-88
2023/05/20 02:14:46;;;;;;;8.00;3.33;;;11.00;99.90;;;;;;4943082;29;20043;-87
2023/05/20 02:17:16;;;;;;;9.43;3.35;;;11.40;99.90;;;;;;4943789;28;20059;-87
2023/05/20 02:19:43;;;;;;;9.98;3.50;;;11.00;99.90;;;;;;4946289;28;20097;-84
2023/05/20 02:22:09;;;;;;;10.05;3.03;;;12.10;99.90;;;;;;4962205;28;20089;-85
2023/05/20 02:24:35;;;;;;;7.32;3.20;;;13.20;99.90;;;;;;4930445;29;20086;-87
2023/05/20 02:27:02;;;;;;;7.43;3.00;;;13.00;99.90;;;;;;4943058;29;20463;-86
2023/05/20 02:29:27;;;;;;;6.63;3.13;;;11.20;99.90;;;;;;4961132;28;20050;-84
2023/05/20 02:31:53;;;;;;;8.43;3.92;;;12.30;99.90;;;;;;4933806;28;20055;-86
2023/05/20 02:34:19;;;;;;;8.05;2.78;;;12.70;99.90;;;;;;4920080;28;20043;-88
2023/05/20 02:36:45;;;;;;;6.97;2.90;;;13.30;99.90;;;;;;4941758;29;20478;-88
2023/05/20 02:39:12;;;;;;;13.25;3.47;;;12.50;99.90;;;;;;4968233;28;20044;-86
2023/05/20 02:41:40;;;;;;;13.40;3.97;;;13.00;99.90;;;;;;4967378;28;20500;-84
2023/05/20 02:44:08;;;;;;;7.78;3.05;;;10.80;99.90;;;;;;4961212;28;20039;-87
2023/05/20 02:46:40;;;;;;;9.55;3.70;;;13.20;99.90;;;;;;4947822;28;20115;-82
2023/05/20 02:49:11;;;;;;;8.77;3.92;;;10.80;99.90;;;;;;4959787;28;20396;-83
2023/05/20 02:51:40;;;;;;;8.95;3.40;;;10.80;99.90;;;;;;4954976;28;20051;-85
2023/05/20 02:54:05;;;;;;;7.32;2.85;;;10.70;99.90;;;;;;4991020;28;20046;-85
2023/05/20 02:56:31;;;;;;;11.07;3.38;;;10.70;99.90;;;;;;4960872;28;20447;-84
2023/05/20 02:58:57;;;;;;;9.30;3.70;;;13.00;99.90;;;;;;4962005;28;20035;-85
2023/05/20 03:01:23;;;;;;;8.02;3.42;;;10.70;99.90;;;;;;4960669;28;20181;-84
2023/05/20 03:03:54;;;;;;;5.32;2.83;;;12.60;99.90;;;;;;4937257;29;20456;-84
2023/05/20 03:06:21;;;;;;;6.28;3.30;;;10.70;99.90;;;;;;4950085;28;20066;-83
2023/05/20 03:08:46;;;;;;;5.32;3.20;;;10.70;99.90;;;;;;4948566;28;20098;-85
2023/05/20 03:11:16;;;;;;;6.38;3.95;;;13.00;99.90;;;;;;4932631;29;20126;-87
2023/05/20 03:13:57;;;;;;;9.25;3.42;;;12.40;99.90;;;;;;4950440;28;20418;-87
2023/05/20 03:16:26;;;;;;;8.45;3.40;;;10.50;99.90;;;;;;4951042;28;20076;-86
2023/05/20 03:18:55;;;;;;;8.32;3.80;;;10.60;99.90;;;;;;4954718;28;20529;-82
2023/05/20 03:21:22;;;;;;;4.78;2.63;;;10.60;99.90;;;;;;4952011;28;20055;-84
2023/05/20 03:23:50;;;;;;;8.30;2.83;;;10.60;99.90;;;;;;4952521;28;20050;-83
2023/05/20 03:26:22;;;;;;;5.55;2.88;;;10.40;99.90;;;;;;4950549;28;20047;-84
2023/05/20 03:28:48;;;;;;;5.20;3.53;;;10.50;99.90;;;;;;4954667;28;20034;-85
2023/05/20 03:31:20;;;;;;;7.78;3.70;;;12.30;99.90;;;;;;4946506;28;20043;-83
2023/05/20 03:33:53;;;;;;;6.45;3.55;;;12.40;99.90;;;;;;4949371;28;20032;-83
2023/05/20 03:36:21;;;;;;;6.57;2.92;;;10.50;99.90;;;;;;4953115;28;20050;-83
2023/05/20 03:38:48;;;;;;;5.53;3.33;;;12.90;99.90;;;;;;4920347;29;20036;-82
2023/05/20 03:41:15;;;;;;;7.53;3.35;;;11.90;99.90;;;;;;4952814;28;20375;-84
2023/05/20 03:43:47;;;;;;;6.72;2.92;;;11.40;99.90;;;;;;4951614;28;20043;-85
2023/05/20 03:46:14;;;;;;;4.78;3.08;;;12.40;99.90;;;;;;4951127;28;20054;-84
2023/05/20 03:48:42;;;;;;;8.02;2.90;;;10.50;99.90;;;;;;4985491;28;20050;-83
2023/05/20 03:51:12;;;;;;;8.93;3.08;;;10.50;99.90;;;;;;4955048;28;20692;-81
2023/05/20 03:53:38;;;;;;;6.13;2.95;;;10.50;99.90;;;;;;4952424;28;20163;-84
2023/05/20 03:56:06;;;;;;;4.80;2.50;;;10.40;99.90;;;;;;4951554;28;20078;-86
2023/05/20 03:58:31;;;;;;;6.03;2.95;;;11.60;99.90;;;;;;4958597;28;20061;-87
2023/05/20 04:00:58;;;;;;;6.25;2.60;;;9.70;99.90;;;;;;4960610;28;20039;-83
2023/05/20 04:03:23;;;;;;;5.00;2.97;;;10.40;99.90;;;;;;4919861;29;20054;-87
2023/05/20 04:05:53;;;;;;;6.38;2.92;;;11.40;99.90;;;;;;4961960;28;20462;-86
2023/05/20 04:08:20;;;;;;;7.43;2.92;;;11.40;99.90;;;;;;4960261;28;20055;-85
2023/05/20 04:10:46;;;;;;;8.52;3.10;;;10.40;99.90;;;;;;4940834;28;20047;-84
2023/05/20 04:13:17;;;;;;;7.15;2.80;;;11.40;99.90;;;;;;4957165;28;20131;-86
2023/05/20 04:15:43;;;;;;;6.25;2.22;;;10.40;99.90;;;;;;4958919;28;20129;-84
2023/05/20 04:18:09;;;;;;;5.75;2.42;;;;;;;;;;4941952;28;20119;-85
2023/05/20 04:20:55;;;;;;;5.05;2.90;;;10.40;99.90;;;;;;4951512;28;20133;-85
2023/05/20 04:23:22;;;;;;;6.07;2.55;;;12.50;99.90;;;;;;4919093;28;20043;-82
2023/05/20 04:25:50;;;;;;;4.30;2.40;;;10.50;99.90;;;;;;4948066;28;20073;-86
2023/05/20 04:28:18;;;;;;;7.15;2.72;;;10.40;99.90;;;;;;4954206;28;20047;-86
2023/05/20 04:31:03;;;;;;;4.13;2.53;;;10.50;99.90;;;;;;4956668;28;20803;-86
2023/05/20 04:33:29;;;;;;;9.45;2.47;;;10.50;99.90;;;;;;4941967;29;20549;-85
2023/05/20 04:36:15;;;;;;;2.50;1.83;;;10.70;99.90;;;;;;4968568;28;20051;-85
2023/05/20 04:38:43;;;;;;;10.23;2.58;;;10.50;99.90;;;;;;4934118;28;20108;-84
2023/05/20 04:41:14;;;;;;;4.25;2.40;;;10.60;99.90;;;;;;4942709;28;20055;-84
2023/05/20 04:43:41;;;;;;;3.65;1.70;;;10.60;99.90;;;;;;4960901;28;20054;-86
2023/05/20 04:46:10;;;;;;;3.53;1.90;;;10.60;99.90;;;;;;4948262;28;20051;-86
2023/05/20 04:48:36;;;;;;;2.20;1.60;;;10.60;99.90;;;;;;4961974;28;20065;-87
2023/05/20 04:51:11;;;;;;;2.88;1.63;;;11.70;99.90;;;;;;4965593;28;20035;-86
2023/05/20 04:53:41;;;;;;;6.78;1.80;;;11.10;99.90;;;;;;4963375;28;20559;-87
2023/05/20 04:56:07;;;;;;;5.57;1.60;;;10.90;99.90;;;;;;4941166;29;20051;-85
2023/05/20 04:58:34;;;;;;;2.25;1.50;;;12.60;99.90;;;;;;4959420;28;20047;-86
2023/05/20 05:01:00;;;;;;;3.45;1.70;;;11.20;99.90;;;;;;4958433;28;20070;-81
2023/05/20 05:03:25;;;;;;;4.63;1.42;;;12.90;99.90;;;;;;4937159;28;20047;-84
2023/05/20 05:05:55;;;;;;;5.00;1.60;;;13.10;99.90;;;;;;4948739;29;20465;-83
2023/05/20 05:08:21;;;;;;;2.75;1.55;;;12.00;99.90;;;;;;4943597;29;20059;-82
2023/05/20 05:10:46;;;;;;;6.53;1.70;;;12.40;99.90;;;;;;4963488;28;20043;-85
2023/05/20 05:13:13;;;;;;;2.25;1.23;;;11.20;99.90;;;;;;4963856;28;20038;-84
2023/05/20 05:15:43;;;;;;;8.25;5.13;;;11.00;99.90;;;;;;4961464;28;20395;-83
2023/05/20 05:18:09;;;;;;;10.63;6.80;;;11.00;99.90;;;;;;4946755;29;20070;-85
2023/05/20 05:20:37;;;;;;;4.53;3.13;;;11.80;99.90;;;;;;4960608;28;20464;-85
2023/05/20 05:23:03;;;;;;;2.50;1.42;;;11.00;99.90;;;;;;4960222;28;20059;-87
2023/05/20 05:25:44;;;;;;;2.70;1.33;;;12.00;99.90;;;;;;4948391;28;20047;-86
2023/05/20 05:28:11;;;;;;;3.78;1.35;;;12.40;99.90;;;;;;4964021;28;20103;-87
2023/05/20 05:30:57;;;;;;;3.92;1.42;;;11.00;99.90;;;;;;4967799;28;20047;-85
2023/05/20 05:33:23;;;;;;;1.85;1.17;;;11.20;99.90;;;;;;4964914;28;20046;-85
2023/05/20 05:35:51;;;;;;;2.83;1.08;;;13.10;99.90;;;;;;4944902;28;20098;-84
2023/05/20 05:38:17;;;;;;;2.42;1.30;;;12.90;99.90;;;;;;4953017;28;20683;-87
2023/05/20 05:40:42;;;;;;;2.72;1.10;;;11.20;99.90;;;;;;4945988;28;20055;-85
2023/05/20 05:43:08;;;;;;;6.93;1.13;;;11.30;99.90;;;;;;4964482;28;20105;-86
2023/05/20 05:45:34;;;;;;;2.42;1.10;;;11.30;99.90;;;;;;4954041;28;20081;-85
2023/05/20 05:48:01;;;;;;;4.90;1.30;;;11.40;99.90;;;;;;4965223;28;20046;-85
2023/05/20 05:50:28;;;;;;;4.65;1.17;;;11.40;99.90;;;;;;4964535;28;20073;-83
2023/05/20 05:52:53;;;;;;;1.70;0.88;;;11.50;99.90;;;;;;4943378;29;20043;-86
2023/05/20 05:55:19;;;;;;;1.83;0.93;;;12.10;99.90;;;;;;4927173;29;20110;-88
2023/05/20 05:57:46;;;;;;;3.75;1.15;;;12.00;99.90;;;;;;4938708;28;20081;-88
2023/05/20 06:00:12;;;;;;;5.78;1.40;;;11.60;99.90;;;;;;4947408;28;20496;-87
2023/05/20 06:02:41;;;;;;;2.63;0.80;;;11.60;99.90;;;;;;4945296;28;20055;-86
2023/05/20 06:05:10;;;;;;;20.63;14.15;;;11.70;99.90;;;;;;4960210;28;20325;-86
2023/05/20 06:07:42;;;;;;;6.72;2.30;;;11.70;99.90;;;;;;4943002;28;20051;-81
2023/05/20 06:10:10;;;;;;;3.65;1.70;;;11.80;99.90;;;;;;4944602;29;20042;-84
2023/05/20 06:12:40;;;;;;;2.17;1.05;;;11.90;99.90;;;;;;4930654;28;20059;-84
2023/05/20 06:15:06;;;;;;;1.80;0.70;;;10.40;99.90;;;;;;4964717;28;20085;-83
2023/05/20 06:17:33;;;;;;;3.63;0.85;;;11.90;99.90;;;;;;4958477;28;20074;-85
2023/05/20 06:19:59;;;;;;;0.90;0.65;;;;;;;;;;4966037;28;20487;-88
2023/05/20 06:22:28;;;;;;;3.17;1.40;;;12.00;99.90;;;;;;4959498;28;20583;-86
2023/05/20 06:24:55;;;;;;;3.00;1.00;;;12.10;99.90;;;;;;4936569;29;20042;-84
2023/05/20 06:28:00;;;;;;;3.95;0.93;;;12.10;99.90;;;;;;4943558;29;20506;-83
2023/05/20 06:30:47;;;;;;;2.08;1.10;;;12.20;99.90;;;;;;4971350;28;20099;-83
2023/05/20 06:33:20;;;;;;;3.15;1.20;;;12.20;99.90;;;;;;4285829;28;10000600;-80
2023/05/20 06:35:55;;;;;;;2.22;1.10;;;12.30;99.90;;;;;;4954268;28;20098;-80
2023/05/20 06:38:24;;;;;;;2.55;2.13;;;12.40;99.90;;;;;;4936755;29;20566;-81
2023/05/20 06:40:50;;;;;;;4.50;1.02;;;12.30;99.90;;;;;;4952377;28;20136;-82
2023/05/20 06:43:18;;;;;;;4.20;0.80;;;12.40;99.90;;;;;;4949262;28;20054;-82
2023/05/20 06:45:44;;;;;;;0.75;0.60;;;13.50;99.90;;;;;;4945784;28;20055;-83
2023/05/20 06:48:10;;;;;;;1.33;0.50;;;13.50;99.90;;;;;;4980062;28;20043;-83
2023/05/20 06:50:38;;;;;;;3.95;0.65;;;12.50;99.90;;;;;;4956468;28;20046;-83
2023/05/20 06:53:09;;;;;;;2.35;0.82;;;12.50;99.90;;;;;;4934034;29;20043;-82
2023/05/20 06:55:37;;;;;;;0.88;0.52;;;12.60;99.90;;;;;;4948051;28;20672;-83
2023/05/20 06:58:09;;;;;;;1.17;0.57;;;;;;;;;;4949407;28;20047;-83
2023/05/20 07:00:34;;;;;;;2.17;0.90;;;12.60;99.90;;;;;;4964867;28;20051;-81
2023/05/20 07:03:13;;;;;;;1.10;0.80;;;12.60;99.90;;;;;;4938974;28;20050;-81
2023/05/20 07:05:39;;;;;;;2.53;0.90;;;12.70;99.90;;;;;;4935610;28;20039;-82
2023/05/20 07:08:05;;;;;;;5.00;1.23;;;12.70;99.90;;;;;;4948043;28;20124;-82
2023/05/20 07:10:30;;;;;;;3.20;0.90;;;12.80;99.90;;;;;;4933927;28;20047;-82
2023/05/20 07:12:56;;;;;;;3.25;0.90;;;14.90;99.90;;;;;;4961990;28;20050;-83
2023/05/20 07:15:22;;;;;;;4.35;1.20;;;13.60;99.90;;;;;;4949585;28;20498;-80
2023/05/20 07:17:47;;;;;;;6.50;0.93;;;14.10;99.90;;;;;;4951560;28;20043;-83
2023/05/20 07:20:16;;;;;;;6.43;0.60;;;12.90;99.90;;;;;;4989601;28;20090;-84
2023/05/20 07:22:43;;;;;;;1.50;1.08;;;12.90;99.90;;;;;;4957301;28;20479;-82
2023/05/20 07:25:09;;;;;;;1.42;0.80;;;13.10;99.90;;;;;;4944235;28;20069;-81
2023/05/20 07:27:35;;;;;;;1.92;0.75;;;13.00;99.90;;;;;;4954233;28;20078;-84
2023/05/20 07:30:01;;;;;;;4.28;0.60;;;13.10;99.90;;;;;;4936763;28;20073;-83
2023/05/20 07:32:26;;;;;;;2.38;0.40;;;13.10;99.90;;;;;;4966487;28;20040;-85
2023/05/20 07:34:52;;;;;;;4.07;0.52;;;13.80;99.90;;;;;;4954643;28;20066;-81
2023/05/20 07:37:18;;;;;;;0.82;0.52;;;13.20;99.90;;;;;;4953135;28;20044;-82
2023/05/20 07:39:44;;;;;;;6.30;0.80;;;15.30;99.90;;;;;;4967070;28;20101;-82
2023/05/20 07:42:09;;;;;;;1.63;0.75;;;13.20;99.90;;;;;;4951512;28;20098;-84
2023/05/20 07:44:38;;;;;;;2.25;1.13;;;14.70;99.90;;;;;;4949080;28;20766;-82
2023/05/20 07:47:04;;;;;;;3.25;1.05;;;13.30;99.90;;;;;;4949971;28;20051;-83
2023/05/20 07:49:30;;;;;;;4.90;0.82;;;13.50;99.90;;;;;;4964845;28;20047;-84
2023/05/20 07:51:55;;;;;;;2.17;1.60;;;13.50;99.90;;;;;;4934267;28;20059;-81
2023/05/20 07:54:25;;;;;;;3.13;1.60;;;14.70;99.90;;;;;;4934767;29;20065;-80
2023/05/20 07:56:51;;;;;;;8.77;1.05;;;13.40;99.90;;;;;;4944925;28;20130;-83
2023/05/20 07:59:20;;;;;;;3.03;0.63;;;15.10;99.90;;;;;;4939565;29;20160;-85
2023/05/20 08:01:47;;;;;;;1.17;0.45;;;13.60;99.90;;;;;;4983467;28;20513;-86
2023/05/20 08:04:16;;;;;;;2.35;0.50;;;13.60;99.90;;;;;;4938514;28;20414;-89
2023/05/20 08:06:43;;;;;;;5.20;0.80;;;13.70;99.90;;;;;;4961231;28;20042;-87
2023/05/20 08:09:09;;;;;;;3.28;0.95;;;13.70;99.90;;;;;;4958569;28;20035;-88
2023/05/20 08:11:34;;;;;;;0.98;0.50;;;13.70;99.90;;;;;;4957381;28;20506;-89
2023/05/20 08:14:01;;;;;;;2.38;1.08;;;13.80;99.90;;;;;;4945164;28;20069;-87
2023/05/20 08:16:27;;;;;;;6.60;1.10;;;13.80;99.90;;;;;;4944644;28;20045;-90
2023/05/20 08:18:53;;;;;;;3.35;0.85;;;13.90;99.90;;;;;;4944185;28;20067;-88
2023/05/20 08:21:20;;;;;;;1.77;0.55;;;13.90;99.90;;;;;;4961468;28;20090;-88
2023/05/20 08:23:47;;;;;;;2.05;0.90;;;15.10;99.90;;;;;;4969002;28;20039;-87
2023/05/20 08:26:13;;;;;;;3.25;0.88;;;14.10;99.90;;;;;;4961946;28;20656;-86
2023/05/20 08:28:39;;;;;;;3.50;0.70;;;14.10;99.90;;;;;;4959404;28;20051;-89
2023/05/20 08:31:04;;;;;;;5.38;0.73;;;15.60;99.90;;;;;;4970357;28;20077;-87
2023/05/20 08:33:30;;;;;;;3.22;0.80;;;14.20;99.90;;;;;;4947820;28;20108;-87
2023/05/20 08:36:00;;;;;;;3.22;0.70;;;14.20;99.90;;;;;;4932914;28;20110;-87
2023/05/20 08:38:29;;;;;;;2.67;0.80;;;14.30;99.90;;;;;;4964724;28;20047;-90
2023/05/20 08:40:56;;;;;;;3.88;0.73;;;14.30;99.90;;;;;;4928567;28;20274;-90
2023/05/20 08:43:22;;;;;;;3.65;0.75;;;14.40;99.90;;;;;;4947673;28;20050;-86
2023/05/20 08:45:57;;;;;;;3.72;1.17;;;14.80;99.90;;;;;;4962600;28;20388;-90
2023/05/20 08:48:26;;;;;;;3.35;0.90;;;14.50;99.90;;;;;;4959945;28;20062;-83
2023/05/20 08:50:56;;;;;;;2.53;1.02;;;14.50;99.90;;;;;;4942750;28;20109;-86
2023/05/20 08:53:23;;;;;;;7.15;0.82;;;15.30;99.90;;;;;;4929928;28;20050;-88
2023/05/20 08:55:59;;;;;;;2.92;1.00;;;14.60;99.90;;;;;;4944005;28;20043;-84
2023/05/20 08:58:24;;;;;;;3.88;1.20;;;14.80;99.90;;;;;;4939580;29;20128;-88
2023/05/20 09:00:51;;;;;;;4.65;1.00;;;14.80;99.90;;;;;;4939620;28;20122;-88
2023/05/20 09:03:19;;;;;;;2.15;1.08;;;14.90;99.90;;;;;;4945493;28;20105;-85
2023/05/20 09:05:45;;;;;;;2.85;1.10;;;14.90;99.90;;;;;;4942093;28;20125;-84
2023/05/20 09:08:11;;;;;;;2.55;1.00;;;15.70;99.90;;;;;;4959088;28;20563;-87
2023/05/20 09:10:40;;;;;;;3.15;0.88;;;15.10;99.90;;;;;;4962775;28;20194;-86
2023/05/20 09:13:07;;;;;;;4.10;1.08;;;15.20;99.90;;;;;;4943733;28;20050;-88
2023/05/20 09:15:34;;;;;;;4.13;0.90;;;16.00;99.90;;;;;;4961471;28;20045;-87
2023/05/20 09:18:03;;;;;;;3.28;1.10;;;15.40;99.90;;;;;;4962166;28;20054;-89
2023/05/20 09:20:30;;;;;;;4.93;4.43;;;15.40;99.90;;;;;;4956774;28;20510;-83
2023/05/20 09:23:02;;;;;;;10.70;5.07;;;15.40;99.90;;;;;;4949477;28;20487;-89
2023/05/20 09:25:28;;;;;;;4.75;1.48;;;15.60;99.90;;;;;;4945615;28;20043;-86
2023/05/20 09:27:54;;;;;;;4.40;1.13;;;15.70;99.90;;;;;;4960357;28;20387;-85
2023/05/20 09:30:22;;;;;;;4.65;1.23;;;15.70;99.90;;;;;;4941637;28;20166;-82
2023/05/20 09:32:59;;;;;;;5.57;1.60;;;15.80;99.90;;;;;;4961120;28;20047;-87
2023/05/20 09:35:26;;;;;;;1.65;1.00;;;15.00;99.90;;;;;;4940605;28;20042;-87
2023/05/20 09:38:09;;;;;;;4.55;1.20;;;16.00;99.90;;;;;;4966080;28;20141;-89
2023/05/20 09:40:48;;;;;;;2.80;1.20;;;16.10;99.90;;;;;;4966476;28;20047;-90
2023/05/20 09:43:14;;;;;;;6.45;1.50;;;16.10;99.90;;;;;;4923033;29;20050;-88
2023/05/20 09:45:49;;;;;;;1.70;0.95;;;16.20;99.90;;;;;;4980432;28;20378;-87
2023/05/20 09:48:24;;;;;;;3.38;1.10;;;16.20;99.90;;;;;;4977048;28;20138;-88
2023/05/20 09:50:51;;;;;;;2.63;1.00;;;16.30;99.90;;;;;;4965120;28;20125;-87
2023/05/20 09:53:23;;;;;;;7.03;1.50;;;16.40;99.90;;;;;;4955720;28;20444;-87
2023/05/20 09:55:53;;;;;;;3.17;1.05;;;16.50;99.90;;;;;;4960335;28;20058;-89
2023/05/20 09:58:23;;;;;;;1.70;1.40;;;16.60;99.90;;;;;;4963127;28;20085;-89
2023/05/20 10:00:49;;;;;;;4.70;1.45;;;16.60;99.90;;;;;;4963080;28;20411;-90
2023/05/20 10:03:17;;;;;;;2.42;1.17;;;16.70;99.90;;;;;;4954044;28;20117;-82
2023/05/20 10:06:03;;;;;;;4.28;1.00;;;16.80;99.90;;;;;;4946579;28;20498;-90
2023/05/20 10:08:59;;;;;;;4.20;1.10;;;16.80;99.90;;;;;;4936749;28;20048;-85
2023/05/20 10:12:11;;;;;;;6.32;1.33;;;16.90;99.90;;;;;;4937945;29;20129;-86
2023/05/20 10:14:53;;;;;;;3.40;1.23;;;17.00;99.90;;;;;;4964937;28;20047;-83
2023/05/20 10:17:50;;;;;;;2.78;1.00;;;17.10;99.90;;;;;;4939288;28;20047;-82
2023/05/20 10:20:15;;;;;;;1.73;1.02;;;17.10;99.90;;;;;;4962870;28;20483;-87
2023/05/20 10:22:44;;;;;;;6.30;1.52;;;17.20;99.90;;;;;;4962768;28;20343;-89
2023/05/20 10:25:22;;;;;;;3.42;0.90;;;17.20;99.90;;;;;;4943100;28;20034;-90
2023/05/20 10:27:47;;;;;;;4.53;1.40;;;17.30;99.90;;;;;;4958037;28;20445;-90
2023/05/20 10:30:21;;;;;;;4.18;1.48;;;17.30;99.90;;;;;;4943948;28;20054;-87
2023/05/20 10:32:56;;;;;;;3.90;1.67;;;17.30;99.90;;;;;;4942623;29;20043;-87
2023/05/20 10:35:25;;;;;;;2.72;1.38;;;17.40;99.90;;;;;;4958753;28;20035;-87
2023/05/20 10:37:53;;;;;;;1.88;1.15;;;17.40;99.90;;;;;;4971426;28;20090;-84
2023/05/20 10:40:21;;;;;;;2.58;0.98;;;17.60;99.90;;;;;;4936467;28;20062;-86
2023/05/20 10:42:47;;;;;;;2.03;0.90;;;17.60;99.90;;;;;;4973370;28;20074;-84
2023/05/20 10:45:27;;;;;;;3.47;1.30;;;17.70;99.90;;;;;;4955094;28;20615;-88
2023/05/20 10:47:58;;;;;;;4.93;1.17;;;17.80;99.90;;;;;;4956941;28;20039;-87
2023/05/20 10:50:43;;;;;;;6.68;1.52;;;17.80;99.90;;;;;;4956301;28;20035;-82
2023/05/20 10:53:12;;;;;;;1.75;1.27;;;18.40;99.90;;;;;;4950696;28;20034;-82
2023/05/20 10:55:40;;;;;;;1.38;1.10;;;18.20;99.90;;;;;;4960449;28;20035;-82
2023/05/20 10:58:06;;;;;;;4.95;1.40;;;18.20;99.90;;;;;;4945108;28;20447;-82
2023/05/20 11:00:36;;;;;;;8.20;1.55;;;18.30;99.90;;;;;;4956787;28;20479;-77
2023/05/20 11:03:03;;;;;;;3.05;1.38;;;18.40;99.90;;;;;;4945590;28;20109;-80
2023/05/20 11:05:30;;;;;;;3.28;1.10;;;18.60;99.90;;;;;;4942849;29;20039;-86
2023/05/20 11:08:03;;;;;;;4.55;1.20;;;18.70;99.90;;;;;;4942271;28;20051;-78
2023/05/20 11:10:29;;;;;;;1.73;1.08;;;18.80;99.90;;;;;;4937863;28;20161;-83
2023/05/20 11:12:59;;;;;;;1.95;1.38;;;18.80;99.90;;;;;;4953673;28;20047;-81
2023/05/20 11:15:25;;;;;;;5.03;1.13;;;18.70;99.90;;;;;;4948103;28;20043;-85
2023/05/20 11:17:55;;;;;;;1.52;1.00;;;18.70;99.90;;;;;;4951931;28;20534;-88
2023/05/20 11:20:22;;;;;;;4.10;1.25;;;18.80;99.90;;;;;;4933677;28;20067;-80
2023/05/20 11:22:52;;;;;;;4.05;1.63;;;18.90;99.90;;;;;;4949284;28;20055;-80
2023/05/20 11:25:18;;;;;;;5.15;1.25;;;19.00;99.90;;;;;;4966884;28;20527;-81
2023/05/20 11:27:45;;;;;;;4.85;1.33;;;19.00;99.90;;;;;;4941913;28;20383;-94
2023/05/20 11:30:20;;;;;;;7.50;1.75;;;19.10;99.90;;;;;;4952783;28;20508;-90
2023/05/20 11:33:06;;;;;;;2.65;1.70;;;19.20;99.90;;;;;;4956875;28;20085;-88
2023/05/20 11:35:32;;;;;;;3.88;1.92;;;19.30;99.90;;;;;;4931892;28;20035;-91
2023/05/20 11:38:08;;;;;;;7.88;2.33;;;19.40;99.90;;;;;;4946376;28;20043;-85
2023/05/20 11:40:34;;;;;;;6.80;4.82;;;19.60;99.90;;;;;;4955508;28;20074;-92
2023/05/20 11:43:02;;;;;;;4.28;2.30;;;19.60;99.90;;;;;;4962899;28;20039;-93
2023/05/20 11:45:39;;;;;;;2.03;1.50;;;19.70;99.90;;;;;;4959351;28;20118;-85
2023/05/20 11:48:09;;;;;;;2.53;1.20;;;19.90;99.90;;;;;;4958605;28;20089;-95
2023/05/20 11:50:39;;;;;;;2.70;1.40;;;19.90;99.90;;;;;;4948611;28;20310;-88
2023/05/20 11:53:06;;;;;;;3.53;1.30;;;19.90;99.90;;;;;;4966166;28;20446;-93
2023/05/20 11:55:33;;;;;;;2.15;1.40;;;19.90;99.90;;;;;;4949951;28;20393;-89
2023/05/20 11:58:00;;;;;;;4.10;1.30;;;19.90;99.90;;;;;;4944682;28;20466;-88
2023/05/20 12:00:26;;;;;;;5.85;1.90;;;19.90;99.90;;;;;;4944396;28;20090;-94
2023/05/20 12:02:52;;;;;;;4.57;1.38;;;19.90;99.90;;;;;;4952929;29;20058;-90
2023/05/20 12:05:19;;;;;;;4.28;1.52;;;19.80;99.90;;;;;;4950004;28;20051;-92
2023/05/20 12:07:45;;;;;;;3.55;1.70;;;19.80;99.90;;;;;;4946098;28;20043;-89
2023/05/20 12:10:12;;;;;;;2.17;1.58;;;19.80;99.90;;;;;;4943856;28;20049;-84
2023/05/20 12:12:38;;;;;;;3.17;1.55;;;20.00;99.90;;;;;;4956870;28;20035;-91
2023/05/20 12:15:04;;;;;;;2.95;1.60;;;20.20;99.90;;;;;;4958913;28;20047;-92
2023/05/20 12:17:42;;;;;;;4.47;1.33;;;20.40;99.90;;;;;;4945612;28;20046;-89
2023/05/20 12:20:09;;;;;;;9.02;2.78;;;20.50;99.90;;;;;;4961833;28;20043;-92
2023/05/20 12:22:35;;;;;;;8.68;2.70;;;20.40;99.90;;;;;;4934054;28;20470;-91
2023/05/20 12:25:00;;;;;;;9.70;2.15;;;20.30;99.90;;;;;;4941855;28;20492;-88
2023/05/20 12:27:27;;;;;;;4.68;2.03;;;20.40;99.90;;;;;;4958461;28;20046;-91
2023/05/20 12:29:52;;;;;;;4.45;1.52;;;20.50;99.90;;;;;;4952296;28;20130;-95
2023/05/20 12:32:19;;;;;;;7.50;1.92;;;20.50;99.90;;;;;;4945153;28;20134;-85
2023/05/20 12:34:45;;;;;;;17.75;10.10;;;20.40;99.90;;;;;;4946001;28;20046;-89
2023/05/20 12:37:11;;;;;;;6.60;4.20;;;20.30;99.90;;;;;;4961895;28;20045;-93
2023/05/20 12:39:36;;;;;;;7.70;2.92;;;20.10;99.90;;;;;;4934009;29;20046;-84
2023/05/20 12:42:02;;;;;;;2.83;1.75;;;20.20;99.90;;;;;;4957974;28;20114;-90
2023/05/20 12:44:28;;;;;;;8.48;1.58;;;20.10;99.90;;;;;;4945205;28;20043;-94
2023/05/20 12:46:54;;;;;;;9.70;1.83;;;20.10;99.90;;;;;;4962348;28;20089;-88
2023/05/20 12:49:20;;;;;;;5.18;1.67;;;20.30;99.90;;;;;;4952653;28;20035;-87
2023/05/20 12:51:45;;;;;;;2.45;1.40;;;20.30;99.90;;;;;;4945667;28;20465;-94
2023/05/20 12:54:11;;;;;;;5.55;1.70;;;20.30;99.90;;;;;;4944267;28;20042;-86